sensor_id;sensor_type;location;lat;lon;timestamp;P1;durP1;ratioP1;P2;durP2;ratioP2
23728;SDS011;12045;60.214;24.724;2023-08-20T00:01:56;3.78;;;2.28;;
23728;SDS011;12045;60.214;24.724;2023-08-20T00:04:28;3.35;;;2.15;;
23728;SDS011;12045;60.214;24.724;2023-08-20T00:06:59;4.50;;;2.25;;
23728;SDS011;12045;60.214;24.724;2023-08-20T00:09:26;2.80;;;2.35;;
23728;SDS011;12045;60.214;24.724;2023-08-20T00:11:54;2.75;;;2.38;;
23728;SDS011;12045;60.214;24.724;2023-08-20T00:14:24;2.47;;;2.20;;
23728;SDS011;12045;60.214;24.724;2023-08-20T00:17:33;2.83;;;2.30;;
23728;SDS011;12045;60.214;24.724;2023-08-20T00:20:04;4.95;;;2.30;;
23728;SDS011;12045;60.214;24.724;2023-08-20T00:22:40;4.60;;;2.30;;
23728;SDS011;12045;60.214;24.724;2023-08-20T00:25:12;3.38;;;2.28;;
23728;SDS011;12045;60.214;24.724;2023-08-20T00:27:41;3.00;;;2.58;;
23728;SDS011;12045;60.214;24.724;2023-08-20T00:30:09;3.55;;;2.42;;
23728;SDS011;12045;60.214;24.724;2023-08-20T00:32:37;3.40;;;2.47;;
23728;SDS011;12045;60.214;24.724;2023-08-20T00:35:05;3.33;;;2.30;;
23728;SDS011;12045;60.214;24.724;2023-08-20T00:37:34;3.95;;;2.20;;
23728;SDS011;12045;60.214;24.724;2023-08-20T00:40:03;4.03;;;2.45;;
23728;SDS011;12045;60.214;24.724;2023-08-20T00:42:34;2.85;;;2.13;;
23728;SDS011;12045;60.214;24.724;2023-08-20T00:45:01;6.63;;;2.38;;
23728;SDS011;12045;60.214;24.724;2023-08-20T00:47:30;3.58;;;2.50;;
23728;SDS011;12045;60.214;24.724;2023-08-20T00:49:59;4.03;;;2.28;;
23728;SDS011;12045;60.214;24.724;2023-08-20T00:52:26;2.50;;;2.08;;
23728;SDS011;12045;60.214;24.724;2023-08-20T00:54:54;3.75;;;2.60;;
23728;SDS011;12045;60.214;24.724;2023-08-20T00:57:21;3.65;;;2.65;;
23728;SDS011;12045;60.214;24.724;2023-08-20T00:59:49;4.05;;;2.50;;
23728;SDS011;12045;60.214;24.724;2023-08-20T01:02:17;6.22;;;2.58;;
23728;SDS011;12045;60.214;24.724;2023-08-20T01:04:45;2.83;;;2.17;;
23728;SDS011;12045;60.214;24.724;2023-08-20T01:12:35;3.75;;;2.50;;
23728;SDS011;12045;60.214;24.724;2023-08-20T01:15:04;4.93;;;2.58;;
23728;SDS011;12045;60.214;24.724;2023-08-20T01:17:32;3.47;;;2.42;;
23728;SDS011;12045;60.214;24.724;2023-08-20T01:20:00;3.20;;;2.20;;
23728;SDS011;12045;60.214;24.724;2023-08-20T01:25:47;3.47;;;2.40;;
23728;SDS011;12045;60.214;24.724;2023-08-20T01:28:35;3.03;;;2.42;;
23728;SDS011;12045;60.214;24.724;2023-08-20T01:31:04;2.83;;;2.28;;
23728;SDS011;12045;60.214;24.724;2023-08-20T01:33:32;4.80;;;2.47;;
23728;SDS011;12045;60.214;24.724;2023-08-20T01:36:00;4.95;;;2.65;;
23728;SDS011;12045;60.214;24.724;2023-08-20T01:38:28;3.03;;;2.28;;
23728;SDS011;12045;60.214;24.724;2023-08-20T01:40:56;3.17;;;2.22;;
23728;SDS011;12045;60.214;24.724;2023-08-20T01:43:23;3.60;;;2.50;;
23728;SDS011;12045;60.214;24.724;2023-08-20T01:45:51;3.00;;;2.35;;
23728;SDS011;12045;60.214;24.724;2023-08-20T01:48:18;3.90;;;2.63;;
23728;SDS011;12045;60.214;24.724;2023-08-20T01:50:46;2.95;;;2.28;;
23728;SDS011;12045;60.214;24.724;2023-08-20T01:53:13;2.85;;;2.42;;
23728;SDS011;12045;60.214;24.724;2023-08-20T01:55:41;4.00;;;2.45;;
23728;SDS011;12045;60.214;24.724;2023-08-20T01:58:08;4.15;;;2.75;;
23728;SDS011;12045;60.214;24.724;2023-08-20T02:00:36;4.53;;;2.80;;
23728;SDS011;12045;60.214;24.724;2023-08-20T02:03:04;4.13;;;2.78;;
23728;SDS011;12045;60.214;24.724;2023-08-20T02:05:31;4.03;;;2.97;;
23728;SDS011;12045;60.214;24.724;2023-08-20T02:07:59;3.33;;;2.75;;
23728;SDS011;12045;60.214;24.724;2023-08-20T02:10:27;3.10;;;2.30;;
23728;SDS011;12045;60.214;24.724;2023-08-20T02:12:54;3.10;;;2.30;;
23728;SDS011;12045;60.214;24.724;2023-08-20T02:15:22;3.55;;;2.38;;
23728;SDS011;12045;60.214;24.724;2023-08-20T02:17:49;2.50;;;2.30;;
23728;SDS011;12045;60.214;24.724;2023-08-20T02:20:17;4.45;;;2.67;;
23728;SDS011;12045;60.214;24.724;2023-08-20T02:22:45;3.40;;;2.70;;
23728;SDS011;12045;60.214;24.724;2023-08-20T02:25:13;4.75;;;2.85;;
23728;SDS011;12045;60.214;24.724;2023-08-20T02:27:40;4.40;;;2.50;;
23728;SDS011;12045;60.214;24.724;2023-08-20T02:30:08;7.28;;;2.67;;
23728;SDS011;12045;60.214;24.724;2023-08-20T02:32:36;3.33;;;2.65;;
23728;SDS011;12045;60.214;24.724;2023-08-20T02:35:04;6.82;;;2.78;;
23728;SDS011;12045;60.214;24.724;2023-08-20T02:37:32;3.60;;;2.50;;
23728;SDS011;12045;60.214;24.724;2023-08-20T02:40:00;5.55;;;2.75;;
23728;SDS011;12045;60.214;24.724;2023-08-20T02:42:28;4.53;;;2.92;;
23728;SDS011;12045;60.214;24.724;2023-08-20T02:44:55;7.80;;;3.08;;
23728;SDS011;12045;60.214;24.724;2023-08-20T02:47:23;3.20;;;2.67;;
23728;SDS011;12045;60.214;24.724;2023-08-20T02:49:50;4.85;;;2.72;;
23728;SDS011;12045;60.214;24.724;2023-08-20T02:52:18;2.97;;;2.55;;
23728;SDS011;12045;60.214;24.724;2023-08-20T02:54:45;4.13;;;2.78;;
23728;SDS011;12045;60.214;24.724;2023-08-20T02:57:13;4.18;;;2.38;;
23728;SDS011;12045;60.214;24.724;2023-08-20T02:59:40;3.38;;;2.70;;
23728;SDS011;12045;60.214;24.724;2023-08-20T03:02:07;4.30;;;2.50;;
23728;SDS011;12045;60.214;24.724;2023-08-20T03:04:35;4.28;;;2.53;;
23728;SDS011;12045;60.214;24.724;2023-08-20T03:07:02;4.25;;;2.83;;
23728;SDS011;12045;60.214;24.724;2023-08-20T03:09:30;2.78;;;2.53;;
23728;SDS011;12045;60.214;24.724;2023-08-20T03:12:00;3.35;;;2.75;;
23728;SDS011;12045;60.214;24.724;2023-08-20T03:14:28;3.35;;;2.83;;
23728;SDS011;12045;60.214;24.724;2023-08-20T03:16:57;4.35;;;2.60;;
23728;SDS011;12045;60.214;24.724;2023-08-20T03:19:24;4.00;;;2.78;;
23728;SDS011;12045;60.214;24.724;2023-08-20T03:21:52;3.10;;;2.78;;
23728;SDS011;12045;60.214;24.724;2023-08-20T03:24:19;4.15;;;2.92;;
23728;SDS011;12045;60.214;24.724;2023-08-20T03:26:47;5.28;;;2.67;;
23728;SDS011;12045;60.214;24.724;2023-08-20T03:29:14;3.20;;;2.70;;
23728;SDS011;12045;60.214;24.724;2023-08-20T03:31:42;2.47;;;2.28;;
23728;SDS011;12045;60.214;24.724;2023-08-20T03:34:10;3.40;;;2.28;;
23728;SDS011;12045;60.214;24.724;2023-08-20T03:36:37;4.68;;;2.80;;
23728;SDS011;12045;60.214;24.724;2023-08-20T03:39:05;3.40;;;2.35;;
23728;SDS011;12045;60.214;24.724;2023-08-20T03:41:32;3.28;;;2.60;;
23728;SDS011;12045;60.214;24.724;2023-08-20T03:43:59;3.17;;;2.63;;
23728;SDS011;12045;60.214;24.724;2023-08-20T03:46:27;3.75;;;2.55;;
23728;SDS011;12045;60.214;24.724;2023-08-20T03:48:54;9.20;;;2.83;;
23728;SDS011;12045;60.214;24.724;2023-08-20T03:51:22;5.35;;;2.80;;
23728;SDS011;12045;60.214;24.724;2023-08-20T03:53:49;4.15;;;2.28;;
23728;SDS011;12045;60.214;24.724;2023-08-20T03:56:17;4.60;;;2.38;;
23728;SDS011;12045;60.214;24.724;2023-08-20T03:58:45;4.30;;;2.65;;
23728;SDS011;12045;60.214;24.724;2023-08-20T04:01:12;3.75;;;2.55;;
23728;SDS011;12045;60.214;24.724;2023-08-20T04:03:40;4.55;;;2.38;;
23728;SDS011;12045;60.214;24.724;2023-08-20T04:06:07;5.30;;;2.30;;
23728;SDS011;12045;60.214;24.724;2023-08-20T04:08:35;5.22;;;2.55;;
23728;SDS011;12045;60.214;24.724;2023-08-20T04:11:02;4.07;;;2.17;;
23728;SDS011;12045;60.214;24.724;2023-08-20T04:13:30;2.47;;;2.17;;
23728;SDS011;12045;60.214;24.724;2023-08-20T04:15:58;3.95;;;2.28;;
23728;SDS011;12045;60.214;24.724;2023-08-20T04:18:25;3.53;;;2.80;;
23728;SDS011;12045;60.214;24.724;2023-08-20T04:20:53;3.85;;;2.15;;
23728;SDS011;12045;60.214;24.724;2023-08-20T04:23:22;5.57;;;2.58;;
23728;SDS011;12045;60.214;24.724;2023-08-20T04:25:50;4.13;;;2.50;;
23728;SDS011;12045;60.214;24.724;2023-08-20T04:28:17;2.38;;;2.17;;
23728;SDS011;12045;60.214;24.724;2023-08-20T04:30:45;3.47;;;2.30;;
23728;SDS011;12045;60.214;24.724;2023-08-20T04:33:13;3.67;;;2.70;;
23728;SDS011;12045;60.214;24.724;2023-08-20T04:35:41;3.75;;;2.15;;
23728;SDS011;12045;60.214;24.724;2023-08-20T04:38:09;3.13;;;2.30;;
23728;SDS011;12045;60.214;24.724;2023-08-20T04:40:36;4.40;;;2.40;;
23728;SDS011;12045;60.214;24.724;2023-08-20T04:43:04;5.22;;;2.45;;
23728;SDS011;12045;60.214;24.724;2023-08-20T04:45:32;3.50;;;2.10;;
23728;SDS011;12045;60.214;24.724;2023-08-20T04:47:59;4.25;;;2.47;;
23728;SDS011;12045;60.214;24.724;2023-08-20T04:50:27;3.35;;;2.38;;
23728;SDS011;12045;60.214;24.724;2023-08-20T04:52:54;4.57;;;2.47;;
23728;SDS011;12045;60.214;24.724;2023-08-20T04:55:26;5.43;;;2.22;;
23728;SDS011;12045;60.214;24.724;2023-08-20T04:57:54;2.90;;;2.40;;
23728;SDS011;12045;60.214;24.724;2023-08-20T05:00:22;2.42;;;2.15;;
23728;SDS011;12045;60.214;24.724;2023-08-20T05:02:49;3.17;;;2.50;;
23728;SDS011;12045;60.214;24.724;2023-08-20T05:05:17;5.72;;;2.47;;
23728;SDS011;12045;60.214;24.724;2023-08-20T05:07:45;5.15;;;2.40;;
23728;SDS011;12045;60.214;24.724;2023-08-20T05:10:12;4.47;;;2.28;;
23728;SDS011;12045;60.214;24.724;2023-08-20T05:12:40;2.95;;;2.40;;
23728;SDS011;12045;60.214;24.724;2023-08-20T05:15:07;3.53;;;2.00;;
23728;SDS011;12045;60.214;24.724;2023-08-20T05:17:35;2.92;;;2.03;;
23728;SDS011;12045;60.214;24.724;2023-08-20T05:20:02;4.45;;;2.47;;
23728;SDS011;12045;60.214;24.724;2023-08-20T05:22:30;2.88;;;2.10;;
23728;SDS011;12045;60.214;24.724;2023-08-20T05:24:58;3.22;;;2.50;;
23728;SDS011;12045;60.214;24.724;2023-08-20T05:27:26;2.45;;;2.25;;
23728;SDS011;12045;60.214;24.724;2023-08-20T05:29:53;2.55;;;2.10;;
23728;SDS011;12045;60.214;24.724;2023-08-20T05:32:21;2.25;;;2.05;;
23728;SDS011;12045;60.214;24.724;2023-08-20T05:34:49;4.13;;;2.45;;
23728;SDS011;12045;60.214;24.724;2023-08-20T05:37:16;2.92;;;2.17;;
23728;SDS011;12045;60.214;24.724;2023-08-20T05:39:44;2.38;;;1.90;;
23728;SDS011;12045;60.214;24.724;2023-08-20T05:42:12;3.30;;;2.17;;
23728;SDS011;12045;60.214;24.724;2023-08-20T05:44:39;4.65;;;2.22;;
23728;SDS011;12045;60.214;24.724;2023-08-20T05:47:07;3.10;;;2.40;;
23728;SDS011;12045;60.214;24.724;2023-08-20T05:49:34;4.20;;;2.33;;
23728;SDS011;12045;60.214;24.724;2023-08-20T05:52:02;2.65;;;2.10;;
23728;SDS011;12045;60.214;24.724;2023-08-20T05:54:30;5.47;;;2.55;;
23728;SDS011;12045;60.214;24.724;2023-08-20T05:56:58;2.45;;;2.25;;
23728;SDS011;12045;60.214;24.724;2023-08-20T05:59:26;5.47;;;2.70;;
23728;SDS011;12045;60.214;24.724;2023-08-20T06:01:53;2.88;;;1.95;;
23728;SDS011;12045;60.214;24.724;2023-08-20T06:04:21;4.07;;;2.35;;
23728;SDS011;12045;60.214;24.724;2023-08-20T06:06:49;2.30;;;2.05;;
23728;SDS011;12045;60.214;24.724;2023-08-20T06:09:16;5.13;;;2.63;;
23728;SDS011;12045;60.214;24.724;2023-08-20T06:11:44;2.70;;;2.10;;
23728;SDS011;12045;60.214;24.724;2023-08-20T06:14:12;4.80;;;2.58;;
23728;SDS011;12045;60.214;24.724;2023-08-20T06:16:40;2.80;;;2.40;;
23728;SDS011;12045;60.214;24.724;2023-08-20T06:19:07;3.33;;;2.20;;
23728;SDS011;12045;60.214;24.724;2023-08-20T06:21:35;6.55;;;2.50;;
23728;SDS011;12045;60.214;24.724;2023-08-20T06:24:02;3.97;;;2.33;;
23728;SDS011;12045;60.214;24.724;2023-08-20T06:26:30;2.97;;;2.22;;
23728;SDS011;12045;60.214;24.724;2023-08-20T06:28:58;2.28;;;2.05;;
23728;SDS011;12045;60.214;24.724;2023-08-20T06:31:26;3.17;;;2.22;;
23728;SDS011;12045;60.214;24.724;2023-08-20T06:33:53;3.25;;;2.35;;
23728;SDS011;12045;60.214;24.724;2023-08-20T06:36:21;6.00;;;2.30;;
23728;SDS011;12045;60.214;24.724;2023-08-20T06:38:48;2.97;;;2.13;;
23728;SDS011;12045;60.214;24.724;2023-08-20T06:41:17;3.10;;;2.40;;
23728;SDS011;12045;60.214;24.724;2023-08-20T06:43:45;2.60;;;2.13;;
23728;SDS011;12045;60.214;24.724;2023-08-20T06:46:12;3.28;;;2.42;;
23728;SDS011;12045;60.214;24.724;2023-08-20T06:48:40;2.83;;;2.20;;
23728;SDS011;12045;60.214;24.724;2023-08-20T06:51:08;4.07;;;2.50;;
23728;SDS011;12045;60.214;24.724;2023-08-20T06:53:41;2.55;;;2.15;;
23728;SDS011;12045;60.214;24.724;2023-08-20T06:56:08;4.53;;;2.40;;
23728;SDS011;12045;60.214;24.724;2023-08-20T06:58:37;2.65;;;2.40;;
23728;SDS011;12045;60.214;24.724;2023-08-20T07:01:06;3.67;;;2.38;;
23728;SDS011;12045;60.214;24.724;2023-08-20T07:03:36;3.78;;;2.28;;
23728;SDS011;12045;60.214;24.724;2023-08-20T07:06:05;4.25;;;2.40;;
23728;SDS011;12045;60.214;24.724;2023-08-20T07:08:34;2.90;;;2.03;;
23728;SDS011;12045;60.214;24.724;2023-08-20T07:11:01;3.42;;;2.40;;
23728;SDS011;12045;60.214;24.724;2023-08-20T07:13:29;2.67;;;1.98;;
23728;SDS011;12045;60.214;24.724;2023-08-20T07:15:56;7.40;;;2.47;;
23728;SDS011;12045;60.214;24.724;2023-08-20T07:18:24;3.78;;;2.40;;
23728;SDS011;12045;60.214;24.724;2023-08-20T07:20:51;2.97;;;2.30;;
23728;SDS011;12045;60.214;24.724;2023-08-20T07:23:19;3.90;;;2.33;;
23728;SDS011;12045;60.214;24.724;2023-08-20T07:25:47;4.45;;;2.70;;
23728;SDS011;12045;60.214;24.724;2023-08-20T07:28:15;3.85;;;2.30;;
23728;SDS011;12045;60.214;24.724;2023-08-20T07:30:47;4.85;;;2.60;;
23728;SDS011;12045;60.214;24.724;2023-08-20T07:33:15;3.17;;;2.53;;
23728;SDS011;12045;60.214;24.724;2023-08-20T07:35:42;4.22;;;2.45;;
23728;SDS011;12045;60.214;24.724;2023-08-20T07:38:09;3.40;;;2.30;;
23728;SDS011;12045;60.214;24.724;2023-08-20T07:40:37;4.47;;;2.53;;
23728;SDS011;12045;60.214;24.724;2023-08-20T07:43:04;4.03;;;2.58;;
23728;SDS011;12045;60.214;24.724;2023-08-20T07:45:32;5.55;;;2.25;;
23728;SDS011;12045;60.214;24.724;2023-08-20T07:47:59;5.15;;;2.72;;
23728;SDS011;12045;60.214;24.724;2023-08-20T07:50:27;2.92;;;2.38;;
23728;SDS011;12045;60.214;24.724;2023-08-20T07:52:54;4.82;;;2.63;;
23728;SDS011;12045;60.214;24.724;2023-08-20T07:55:21;3.85;;;2.80;;
23728;SDS011;12045;60.214;24.724;2023-08-20T07:57:49;4.32;;;2.45;;
23728;SDS011;12045;60.214;24.724;2023-08-20T08:00:18;5.05;;;2.53;;
23728;SDS011;12045;60.214;24.724;2023-08-20T08:02:45;3.70;;;2.30;;
23728;SDS011;12045;60.214;24.724;2023-08-20T08:05:13;3.65;;;2.58;;
23728;SDS011;12045;60.214;24.724;2023-08-20T08:07:41;4.53;;;2.47;;
23728;SDS011;12045;60.214;24.724;2023-08-20T08:10:08;3.22;;;2.47;;
23728;SDS011;12045;60.214;24.724;2023-08-20T08:12:36;3.70;;;2.53;;
23728;SDS011;12045;60.214;24.724;2023-08-20T08:15:04;3.15;;;2.70;;
23728;SDS011;12045;60.214;24.724;2023-08-20T08:17:31;3.53;;;2.30;;
23728;SDS011;12045;60.214;24.724;2023-08-20T08:19:59;3.50;;;2.88;;
23728;SDS011;12045;60.214;24.724;2023-08-20T08:22:27;2.63;;;2.42;;
23728;SDS011;12045;60.214;24.724;2023-08-20T08:24:54;3.28;;;2.47;;
23728;SDS011;12045;60.214;24.724;2023-08-20T08:27:22;3.90;;;2.50;;
23728;SDS011;12045;60.214;24.724;2023-08-20T08:29:50;2.88;;;2.33;;
23728;SDS011;12045;60.214;24.724;2023-08-20T08:32:17;3.83;;;2.45;;
23728;SDS011;12045;60.214;24.724;2023-08-20T08:34:45;3.97;;;2.20;;
23728;SDS011;12045;60.214;24.724;2023-08-20T08:37:12;2.70;;;2.50;;
23728;SDS011;12045;60.214;24.724;2023-08-20T08:39:40;3.55;;;2.33;;
23728;SDS011;12045;60.214;24.724;2023-08-20T08:42:07;2.97;;;2.40;;
23728;SDS011;12045;60.214;24.724;2023-08-20T08:44:38;5.38;;;2.60;;
23728;SDS011;12045;60.214;24.724;2023-08-20T08:47:08;3.00;;;2.70;;
23728;SDS011;12045;60.214;24.724;2023-08-20T08:49:35;4.18;;;2.70;;
23728;SDS011;12045;60.214;24.724;2023-08-20T08:52:03;4.95;;;2.35;;
23728;SDS011;12045;60.214;24.724;2023-08-20T08:54:34;5.82;;;2.80;;
23728;SDS011;12045;60.214;24.724;2023-08-20T08:57:02;4.35;;;2.50;;
23728;SDS011;12045;60.214;24.724;2023-08-20T08:59:31;5.07;;;2.40;;
23728;SDS011;12045;60.214;24.724;2023-08-20T09:01:59;5.32;;;2.40;;
23728;SDS011;12045;60.214;24.724;2023-08-20T09:04:26;3.80;;;2.65;;
23728;SDS011;12045;60.214;24.724;2023-08-20T09:06:55;4.95;;;2.78;;
23728;SDS011;12045;60.214;24.724;2023-08-20T09:09:24;3.05;;;2.28;;
23728;SDS011;12045;60.214;24.724;2023-08-20T09:11:57;4.85;;;2.55;;
23728;SDS011;12045;60.214;24.724;2023-08-20T09:14:28;3.92;;;2.22;;
23728;SDS011;12045;60.214;24.724;2023-08-20T09:17:00;2.90;;;2.60;;
23728;SDS011;12045;60.214;24.724;2023-08-20T09:19:29;3.38;;;2.40;;
23728;SDS011;12045;60.214;24.724;2023-08-20T09:22:01;3.13;;;2.63;;
23728;SDS011;12045;60.214;24.724;2023-08-20T09:25:15;2.70;;;2.40;;
23728;SDS011;12045;60.214;24.724;2023-08-20T09:27:22;3.58;;;2.35;;
23728;SDS011;12045;60.214;24.724;2023-08-20T09:29:54;2.90;;;2.60;;
23728;SDS011;12045;60.214;24.724;2023-08-20T09:32:23;3.72;;;2.55;;
23728;SDS011;12045;60.214;24.724;2023-08-20T09:34:53;4.47;;;2.40;;
23728;SDS011;12045;60.214;24.724;2023-08-20T09:37:22;3.67;;;2.50;;
23728;SDS011;12045;60.214;24.724;2023-08-20T09:39:50;5.35;;;2.60;;
23728;SDS011;12045;60.214;24.724;2023-08-20T09:42:18;4.93;;;2.40;;
23728;SDS011;12045;60.214;24.724;2023-08-20T09:44:46;2.85;;;2.30;;
23728;SDS011;12045;60.214;24.724;2023-08-20T09:47:17;4.13;;;2.38;;
23728;SDS011;12045;60.214;24.724;2023-08-20T09:49:48;3.10;;;2.47;;
23728;SDS011;12045;60.214;24.724;2023-08-20T09:52:16;2.83;;;2.53;;
23728;SDS011;12045;60.214;24.724;2023-08-20T09:57:36;3.47;;;2.30;;
23728;SDS011;12045;60.214;24.724;2023-08-20T10:00:05;3.90;;;2.42;;
23728;SDS011;12045;60.214;24.724;2023-08-20T10:02:37;3.70;;;2.42;;
23728;SDS011;12045;60.214;24.724;2023-08-20T10:05:05;2.53;;;2.28;;
23728;SDS011;12045;60.214;24.724;2023-08-20T10:07:34;5.18;;;2.30;;
23728;SDS011;12045;60.214;24.724;2023-08-20T10:10:07;6.35;;;2.60;;
23728;SDS011;12045;60.214;24.724;2023-08-20T10:12:37;2.45;;;2.17;;
23728;SDS011;12045;60.214;24.724;2023-08-20T10:15:09;5.90;;;2.28;;
23728;SDS011;12045;60.214;24.724;2023-08-20T10:17:39;2.90;;;2.40;;
23728;SDS011;12045;60.214;24.724;2023-08-20T10:20:09;2.47;;;2.00;;
23728;SDS011;12045;60.214;24.724;2023-08-20T10:22:40;2.28;;;2.08;;
23728;SDS011;12045;60.214;24.724;2023-08-20T10:25:10;3.15;;;2.20;;
23728;SDS011;12045;60.214;24.724;2023-08-20T10:27:41;3.03;;;2.03;;
23728;SDS011;12045;60.214;24.724;2023-08-20T10:30:10;3.20;;;2.25;;
23728;SDS011;12045;60.214;24.724;2023-08-20T10:32:43;2.92;;;1.83;;
23728;SDS011;12045;60.214;24.724;2023-08-20T10:35:28;2.80;;;1.92;;
23728;SDS011;12045;60.214;24.724;2023-08-20T10:38:14;2.53;;;2.05;;
23728;SDS011;12045;60.214;24.724;2023-08-20T10:48:36;2.60;;;2.05;;
23728;SDS011;12045;60.214;24.724;2023-08-20T10:53:40;2.95;;;1.77;;
23728;SDS011;12045;60.214;24.724;2023-08-20T10:56:10;2.30;;;1.80;;
23728;SDS011;12045;60.214;24.724;2023-08-20T10:58:43;2.55;;;1.88;;
23728;SDS011;12045;60.214;24.724;2023-08-20T11:01:13;3.55;;;2.17;;
23728;SDS011;12045;60.214;24.724;2023-08-20T11:03:48;5.43;;;2.20;;
23728;SDS011;12045;60.214;24.724;2023-08-20T11:06:17;4.00;;;2.20;;
23728;SDS011;12045;60.214;24.724;2023-08-20T11:08:45;2.33;;;2.00;;
23728;SDS011;12045;60.214;24.724;2023-08-20T11:11:13;1.90;;;1.80;;
23728;SDS011;12045;60.214;24.724;2023-08-20T11:13:41;2.17;;;1.98;;
23728;SDS011;12045;60.214;24.724;2023-08-20T11:16:09;3.10;;;2.20;;
23728;SDS011;12045;60.214;24.724;2023-08-20T11:18:37;1.75;;;1.65;;
23728;SDS011;12045;60.214;24.724;2023-08-20T11:21:05;5.45;;;2.05;;
23728;SDS011;12045;60.214;24.724;2023-08-20T11:23:34;2.10;;;1.90;;
23728;SDS011;12045;60.214;24.724;2023-08-20T11:26:02;1.90;;;1.70;;
23728;SDS011;12045;60.214;24.724;2023-08-20T11:28:30;2.28;;;1.90;;
23728;SDS011;12045;60.214;24.724;2023-08-20T11:30:58;4.35;;;2.00;;
23728;SDS011;12045;60.214;24.724;2023-08-20T11:33:27;3.33;;;1.90;;
23728;SDS011;12045;60.214;24.724;2023-08-20T11:35:57;2.65;;;2.15;;
23728;SDS011;12045;60.214;24.724;2023-08-20T11:38:24;1.90;;;1.65;;
23728;SDS011;12045;60.214;24.724;2023-08-20T11:40:53;2.33;;;2.00;;
23728;SDS011;12045;60.214;24.724;2023-08-20T11:43:21;1.92;;;1.73;;
23728;SDS011;12045;60.214;24.724;2023-08-20T11:45:49;3.58;;;1.88;;
23728;SDS011;12045;60.214;24.724;2023-08-20T11:48:16;2.28;;;1.90;;
23728;SDS011;12045;60.214;24.724;2023-08-20T11:50:44;2.60;;;1.73;;
23728;SDS011;12045;60.214;24.724;2023-08-20T11:53:12;1.85;;;1.50;;
23728;SDS011;12045;60.214;24.724;2023-08-20T11:55:40;1.60;;;1.50;;
23728;SDS011;12045;60.214;24.724;2023-08-20T11:58:13;2.42;;;1.52;;
23728;SDS011;12045;60.214;24.724;2023-08-20T12:00:41;2.00;;;1.65;;
23728;SDS011;12045;60.214;24.724;2023-08-20T12:03:09;1.95;;;1.73;;
23728;SDS011;12045;60.214;24.724;2023-08-20T12:05:40;2.22;;;1.60;;
23728;SDS011;12045;60.214;24.724;2023-08-20T12:08:14;3.47;;;1.80;;
23728;SDS011;12045;60.214;24.724;2023-08-20T12:10:46;2.92;;;1.80;;
23728;SDS011;12045;60.214;24.724;2023-08-20T12:13:13;5.93;;;2.10;;
23728;SDS011;12045;60.214;24.724;2023-08-20T12:15:41;2.90;;;1.55;;
23728;SDS011;12045;60.214;24.724;2023-08-20T12:18:09;3.35;;;1.90;;
23728;SDS011;12045;60.214;24.724;2023-08-20T12:20:37;2.17;;;1.98;;
23728;SDS011;12045;60.214;24.724;2023-08-20T12:23:06;2.25;;;1.63;;
23728;SDS011;12045;60.214;24.724;2023-08-20T12:25:34;2.80;;;1.50;;
23728;SDS011;12045;60.214;24.724;2023-08-20T12:28:04;1.65;;;1.55;;
23728;SDS011;12045;60.214;24.724;2023-08-20T12:30:32;2.38;;;1.70;;
23728;SDS011;12045;60.214;24.724;2023-08-20T12:33:05;3.08;;;1.67;;
23728;SDS011;12045;60.214;24.724;2023-08-20T12:35:33;2.75;;;1.50;;
23728;SDS011;12045;60.214;24.724;2023-08-20T12:38:01;2.22;;;1.67;;
23728;SDS011;12045;60.214;24.724;2023-08-20T12:40:29;2.25;;;1.60;;
23728;SDS011;12045;60.214;24.724;2023-08-20T12:42:57;1.73;;;1.48;;
23728;SDS011;12045;60.214;24.724;2023-08-20T12:45:24;4.35;;;1.80;;
23728;SDS011;12045;60.214;24.724;2023-08-20T12:47:52;4.25;;;1.67;;
23728;SDS011;12045;60.214;24.724;2023-08-20T12:50:20;3.75;;;1.88;;
23728;SDS011;12045;60.214;24.724;2023-08-20T12:52:48;2.35;;;1.77;;
23728;SDS011;12045;60.214;24.724;2023-08-20T12:55:17;1.77;;;1.67;;
23728;SDS011;12045;60.214;24.724;2023-08-20T12:57:52;2.05;;;1.60;;
23728;SDS011;12045;60.214;24.724;2023-08-20T13:00:22;4.90;;;1.92;;
23728;SDS011;12045;60.214;24.724;2023-08-20T13:02:52;2.28;;;1.90;;
23728;SDS011;12045;60.214;24.724;2023-08-20T13:05:22;5.03;;;1.70;;
23728;SDS011;12045;60.214;24.724;2023-08-20T13:07:51;1.70;;;1.60;;
23728;SDS011;12045;60.214;24.724;2023-08-20T13:10:19;2.50;;;1.90;;
23728;SDS011;12045;60.214;24.724;2023-08-20T13:12:49;3.72;;;1.98;;
23728;SDS011;12045;60.214;24.724;2023-08-20T13:15:21;2.40;;;1.95;;
23728;SDS011;12045;60.214;24.724;2023-08-20T13:17:50;2.95;;;2.08;;
23728;SDS011;12045;60.214;24.724;2023-08-20T13:20:18;3.72;;;2.20;;
23728;SDS011;12045;60.214;24.724;2023-08-20T13:22:51;4.10;;;1.70;;
23728;SDS011;12045;60.214;24.724;2023-08-20T13:25:18;2.25;;;2.05;;
23728;SDS011;12045;60.214;24.724;2023-08-20T13:27:48;2.15;;;1.95;;
23728;SDS011;12045;60.214;24.724;2023-08-20T13:30:16;2.20;;;1.92;;
23728;SDS011;12045;60.214;24.724;2023-08-20T13:32:44;2.33;;;2.13;;
23728;SDS011;12045;60.214;24.724;2023-08-20T13:35:12;3.60;;;2.20;;
23728;SDS011;12045;60.214;24.724;2023-08-20T13:37:41;2.25;;;2.05;;
23728;SDS011;12045;60.214;24.724;2023-08-20T13:40:09;2.78;;;2.03;;
23728;SDS011;12045;60.214;24.724;2023-08-20T13:42:37;4.53;;;2.00;;
23728;SDS011;12045;60.214;24.724;2023-08-20T13:45:05;2.40;;;1.88;;
23728;SDS011;12045;60.214;24.724;2023-08-20T13:47:33;2.33;;;1.92;;
23728;SDS011;12045;60.214;24.724;2023-08-20T13:50:01;2.22;;;2.03;;
23728;SDS011;12045;60.214;24.724;2023-08-20T13:52:31;2.30;;;2.10;;
23728;SDS011;12045;60.214;24.724;2023-08-20T13:54:59;4.00;;;1.80;;
23728;SDS011;12045;60.214;24.724;2023-08-20T13:57:26;3.13;;;2.25;;
23728;SDS011;12045;60.214;24.724;2023-08-20T13:59:54;2.47;;;2.00;;
23728;SDS011;12045;60.214;24.724;2023-08-20T14:02:21;2.65;;;1.90;;
23728;SDS011;12045;60.214;24.724;2023-08-20T14:04:49;2.53;;;2.03;;
23728;SDS011;12045;60.214;24.724;2023-08-20T14:07:17;2.17;;;1.92;;
23728;SDS011;12045;60.214;24.724;2023-08-20T14:09:45;2.00;;;1.80;;
23728;SDS011;12045;60.214;24.724;2023-08-20T14:12:12;2.75;;;1.80;;
23728;SDS011;12045;60.214;24.724;2023-08-20T14:14:40;1.85;;;1.70;;
23728;SDS011;12045;60.214;24.724;2023-08-20T14:17:07;1.67;;;1.58;;
23728;SDS011;12045;60.214;24.724;2023-08-20T14:19:35;2.33;;;2.03;;
23728;SDS011;12045;60.214;24.724;2023-08-20T14:22:03;4.10;;;2.13;;
23728;SDS011;12045;60.214;24.724;2023-08-20T14:24:30;2.55;;;1.90;;
23728;SDS011;12045;60.214;24.724;2023-08-20T14:26:58;2.25;;;1.83;;
23728;SDS011;12045;60.214;24.724;2023-08-20T14:29:25;2.10;;;1.90;;
23728;SDS011;12045;60.214;24.724;2023-08-20T14:31:53;2.45;;;1.85;;
23728;SDS011;12045;60.214;24.724;2023-08-20T14:34:20;2.08;;;1.88;;
23728;SDS011;12045;60.214;24.724;2023-08-20T14:36:48;2.38;;;2.10;;
23728;SDS011;12045;60.214;24.724;2023-08-20T14:39:15;2.35;;;1.80;;
23728;SDS011;12045;60.214;24.724;2023-08-20T14:41:43;2.78;;;1.70;;
23728;SDS011;12045;60.214;24.724;2023-08-20T14:44:11;2.97;;;1.50;;
23728;SDS011;12045;60.214;24.724;2023-08-20T14:46:38;2.47;;;1.50;;
23728;SDS011;12045;60.214;24.724;2023-08-20T14:49:06;2.17;;;1.48;;
23728;SDS011;12045;60.214;24.724;2023-08-20T14:51:33;2.00;;;1.50;;
23728;SDS011;12045;60.214;24.724;2023-08-20T14:54:02;1.92;;;1.33;;
23728;SDS011;12045;60.214;24.724;2023-08-20T14:56:30;2.10;;;1.40;;
23728;SDS011;12045;60.214;24.724;2023-08-20T14:58:58;1.90;;;1.70;;
23728;SDS011;12045;60.214;24.724;2023-08-20T15:01:26;2.25;;;1.50;;
23728;SDS011;12045;60.214;24.724;2023-08-20T15:03:54;2.60;;;1.40;;